Pagrindinis puslapis
METAR-TAF:

METAR-TAF

Oro uostai :

Bamakas, Malis

platuma: 12-32N, ilguma: 007-57W, Aukštis: 380 m

Dabartinis oras

Ataskaita buvo paskelbta 26 minutes, ne 00:30 UTC
Ramus vėjas
Temperatūra 33°C
Drėgmė 34%
Slėgis 1013 hPa
Matomumas 10 km arba daugiau
Mažai debesys ne aukštis 4000 ft

METAR: GABS 290030Z 00000KT 9999 FEW040 33/15 Q1013 NOSIG

Laikas: 00:56 (00:56 UTC)

Prognozė

Ataskaita buvo paskelbta 1 valandą ir 56 minutes, ne 23:00 UTC
Prognozė galioja nuo 29 metu 00 UTC su 30 metu 06 UTC
Vėjas 6 kt iš Vakarų
Matomumas: 8000 m
Mažai debesys ne aukštis 3500 ft
Laikinai
nuo 29 metu 00 UTC su 29 metu 06 UTC
Vėjas 15 kt nuo kintamojo kryptimis su gūsio iki 30 kt
Matomumas: 3000 m
Išsisklaidę debesys ne aukštis 3500 ft
Mažai debesys ne aukštis 4000 ft, Liūtiniai kamuoliniai debesys.
Dulkes pustymas, perkūnija, lietus

TAF: GABS 282300Z 2900/3006 26006KT 8000 FEW035 TEMPO 2900/2906 VRB15G30KT 3000 BLDU TS -SHRA SCT035 FEW040CB

Orai ataskaitas ir orų prognozės (METAR, TAF).

turimą stotys yra geltonos ir raudonos taškus žemėlapyje.

Perkelti pele per norėdami pamatyti stoties vardą.

Tada spustelėkite, norėdami matyti oro stebėjimo ir prognozės.

Norėdami pakeisti žemėlapį: spustelėkite ant žalios mygtukų su juodo kryžiaus žemyn,; žalią mygtuką su brūkšneliu, jei norite nutolinti; arba žalių rodyklių gretimoms žemėlapius.


METAR-TAF: